Aérodrome :
LOGIN :

S'inscrire | Disclaimer

   EN    FR    IT 

 










Légende :    VFR   VFR Marginal   IFR   IFR Intensif   IFR Très Intensif
Visi : 
Plafond : 
>= 8 km
>= 3000ft
5 à 8 km
1000 à 3000 ft
1500m à 5 km
500 à 1000 ft
800 à 1500m
200 à 500 ft
< 800m
< 200 ft
Symboles :   Orages  Brouillard  Fortes neiges  Fortes précipitations  Vent > 20 kt
SIGMETs :   Divers  Orages  Givrage  Turbulence  Onde Orograph.  Cendres Volcan.







- Altitude de l'aérodrome : 74 ft
- Code IATA : EIN


EHEH - Eindhoven

DERNIER METAR :
  • 270355Z AUTO 11005KT 090V150 9999 FEW160 17/12 Q1018 BLU

METARs EXPIRÉS :
  • 270325Z AUTO 11005KT 080V150 9999 FEW140 18/12 Q1017 BLU
  • 270255Z AUTO 11005KT 060V140 9999 NCD 18/12 Q1017 BLU
  • 270225Z AUTO 10006KT 060V120 9999 FEW130 19/12 Q1017 BLU
  • 270155Z AUTO 11004KT 070V130 9999 NCD 19/12 Q1017 BLU
  • 270125Z AUTO 09005KT 060V130 9999 NCD 19/12 Q1017 BLU

TAF TAF EHEH
Valide du 27 à 00h jusqu'au 28 à 06h UTC


262332Z 2700/2806 09005KT CAVOK
BECMG 2708/2710 14012G22KT
BECMG 2718/2721 20008KT
PROB30
TEMPO 2722/2806 27015G25KT 4500 SHRA SCT050CB BKN070
Pas de NOTAMs connus pour ce terrain.



MET'MAP, la Météo Aéronautique d'un coup d'oeil ! - Copyright ORBIFLY Décembre 2007 - Disclaimer

ORBIFLY MET'MAP TEAM :

Programmation & Développement : Alexandra Zaïnal
Conception & Développement : Baudouin d'Aumeries
Co-Programmation & Développement : Marc-Olivier Méhu
Soutien technique & logistique : Manuel Goepfert

Contact : metmap@orbifly.com




SOURCES & CREDITS :

   NOAA